Here is the Quick Look data you requested

The Data originates at the National Weather Service, and is made available here by the UAlbany Department of Atmospheric and Environmental Sciences

Surface Observations

KHSP 151955Z AUTO 26013KT 10SM 32/16 A3014 RMK AO2 T03190156=
KHSP 152015Z AUTO 25013G18KT 10SM 32/14 A3014 RMK AO2 T03150135=
KHSP 152035Z AUTO 25011G19KT 10SM 31/15 A3012 RMK AO2 T03130151=
KHSP 152055Z AUTO 25012G17KT 10SM 32/14 A3012 RMK AO2 T03150139=
KHSP 152115Z AUTO 26009G15KT 10SM 31/14 A3011 RMK AO2 T03100137=
KHSP 152135Z AUTO 28008G18KT 240V300 10SM 31/14 A3011 RMK AO2 T03130141=
KHSP 152155Z AUTO 26012G16KT 10SM 31/15 A3011 RMK AO2 T03110146=
KHSP 152215Z AUTO 26008G15KT 10SM 31/15 A3011 RMK AO2 T03070153=
KHSP 152235Z AUTO 26008KT 10SM 31/16 A3010 RMK AO2 T03050158=
KHSP 152255Z AUTO 27009KT 10SM 30/16 A3010 RMK AO2 T03000162=
KHSP 152315Z AUTO 27011KT 10SM 30/16 A3010 RMK AO2 T02950162=
KHSP 152335Z AUTO 27010KT 10SM 29/16 A3011 RMK AO2 T02910162=
KHSP 152355Z AUTO 27008KT 10SM 29/17 A3011 RMK AO2 T02860165 10323 20286=
KHSP 160015Z AUTO 26008KT 10SM 28/17 A3012 RMK AO2 T02820165=
KHSP 160035Z AUTO 25006KT 10SM 28/17 A3012 RMK AO2 T02760165=
KHSP 160055Z AUTO 25006KT 10SM 27/17 A3012 RMK AO2 T02740165=
KHSP 160115Z AUTO 25007KT 10SM 27/17 A3012 RMK AO2 T02670165=
KHSP 160135Z AUTO 25007KT 10SM 26/17 A3012 RMK AO2 T02620165=
KHSP 160155Z AUTO 25008KT 10SM 27/17 A3012 RMK AO2 T02650165=
KHSP 160215Z AUTO 24007KT 10SM 26/17 A3012 RMK AO2 T02610165=
KHSP 160235Z AUTO 24007KT 10SM 26/17 A3012 RMK AO2 T02570165=
KHSP 160255Z AUTO 24007KT 10SM 25/17 A3011 RMK AO2 T02540166=
KHSP 160315Z AUTO 24008KT 10SM 25/17 A3011 RMK AO2 T02510167=
KHSP 160335Z AUTO 24008KT 10SM 25/17 A3011 RMK AO2 T02490168=
KHSP 160355Z AUTO 24008KT 10SM 25/17 A3010 RMK AO2 T02480170=
KHSP 160415Z AUTO 24007KT 10SM 25/17 A3010 RMK AO2 T02480167=
KHSP 160435Z AUTO 25009KT 10SM 25/17 A3010 RMK AO2 T02520168=
KHSP 160455Z AUTO 27010KT 10SM 25/17 A3009 RMK AO2 T02530171 403230219=
KHSP 160515Z AUTO 26010KT 10SM 25/17 A3010 RMK AO2 T02510173=
KHSP 160535Z AUTO 26009KT 10SM 25/17 A3009 RMK AO2 T02460174=
KHSP 160555Z AUTO 26010KT 10SM 25/18 A3010 RMK AO2 T02450175 10285 20245=
KHSP 160615Z AUTO 25010KT 10SM 24/18 A3010 RMK AO2 T02440177=
KHSP 160635Z AUTO 25011KT 10SM 24/18 A3010 RMK AO2 T02410179=
KHSP 160655Z AUTO 26012KT 10SM 24/18 A3010 RMK AO2 T02400180=
KHSP 160715Z AUTO 26012KT 10SM 24/18 A3010 RMK AO2 T02400180=
KHSP 160735Z AUTO 27013KT 10SM 24/18 A3010 RMK AO2 T02400180=
KHSP 160755Z AUTO 27011KT 10SM 24/18 A3010 RMK AO2 T02380180=
KHSP 160815Z AUTO 27011KT 10SM 24/18 A3009 RMK AO2 T02390183=
KHSP 160835Z AUTO 26012G17KT 10SM 24/18 A3009 RMK AO2 T02390184=
KHSP 160855Z AUTO 27011KT 10SM 24/19 A3009 RMK AO2 T02370185=
KHSP 160915Z AUTO 26010KT 10SM 24/18 A3008 RMK AO2 T02370183=
KHSP 160935Z AUTO 27011KT 10SM 23/19 A3008 RMK AO2 T02310185=
KHSP 160955Z AUTO 27010KT 10SM 23/19 A3009 RMK AO2 T02310185=
KHSP 161015Z AUTO 27011KT 10SM 23/19 A3009 RMK AO2 T02340186=
KHSP 161035Z AUTO 27011KT 10SM 23/19 A3010 RMK AO2 T02310186=
KHSP 161055Z AUTO 27010KT 10SM 24/19 A3010 RMK AO2 T02360190=
KHSP 161115Z AUTO 26009KT 10SM 24/19 A3011 RMK AO2 T02400194=
KHSP 161135Z AUTO 27009KT 10SM 24/20 A3012 RMK AO2 T02380195=
KHSP 161155Z AUTO 27009KT 10SM 24/20 A3012 RMK AO2 T02420196 10245 20231=
KHSP 161215Z AUTO 26011KT 10SM 24/20 A3012 RMK AO2 T02380196=
KHSP 161235Z AUTO 27010KT 10SM 25/20 A3012 RMK AO2 T02470199=
KHSP 161255Z AUTO 27013G16KT 10SM 25/20 A3012 RMK AO2 T02510200=
KHSP 161315Z AUTO 27010KT 10SM 25/20 A3012 RMK AO2 T02540201=
KHSP 161335Z AUTO 27011KT 10SM 26/20 A3012 RMK AO2 T02560202=
KHSP 161355Z AUTO 26011KT 10SM 26/20 A3012 RMK AO2 T02580202=
KHSP 161415Z AUTO 25010KT 10SM 26/21 A3012 RMK AO2 T02610205=
KHSP 161435Z AUTO 28009G17KT 10SM 27/21 A3013 RMK AO2 T02690206=
KHSP 161455Z AUTO 30013KT 10SM 27/21 A3013 RMK AO2 LTG DSNT SW T02710206=
KHSP 161515Z AUTO 24013KT 10SM 28/21 A3013 RMK AO2 T02770206=
KHSP 161535Z AUTO 26011G17KT 10SM 28/20 A3013 RMK AO2 T02830204=
KHSP 161555Z AUTO 26013G18KT 10SM 30/20 A3012 RMK AO2 T02950201=
KHSP 161615Z AUTO 26013G18KT 10SM 30/19 A3012 RMK AO2 T02960194=
KHSP 161635Z AUTO 26012G16KT 10SM 29/20 A3012 RMK AO2 T02880197=
KHSP 161655Z AUTO 26013G20KT 10SM 30/19 A3012 RMK AO2 T02980191=
KHSP 161715Z AUTO 27009G16KT 10SM 30/20 A3011 RMK AO2 T03000195=
KHSP 161735Z AUTO 24012G16KT 10SM 31/19 A3011 RMK AO2 T03080193=
KHSP 161755Z AUTO 25009G14KT 10SM 31/19 A3010 RMK AO2 T03090189 10311 20237=
KHSP 161815Z AUTO 24012G16KT 10SM 31/19 A3009 RMK AO2 T03080190=
KHSP 161835Z AUTO 28008G16KT 10SM 30/19 A3009 RMK AO2 T03020188=
KHSP 161855Z AUTO 27010G15KT 10SM 31/18 A3009 RMK AO2 T03060183=
KHSP 161915Z AUTO 26010G15KT 240V300 10SM 31/18 A3008 RMK AO2 T03140183=
KHSP 161935Z AUTO 24010G14KT 10SM 32/18 A3007 RMK AO2 T03190182=
KHSP 161955Z AUTO 26008G16KT 230V290 10SM 31/17 A3006 RMK AO2 T03130174=
KHSP 162015Z AUTO 24010G14KT 10SM 31/18 A3007 RMK AO2 T03130175=

Decoded Surface Observations


The weather observed at HOT SPRINGS/INGA, VA (KHSP) at 03:55 PM EDT was:
  The skies were unobserved.
  Temperature: 90F ( 32C)  Dewpoint:  61F ( 16C)  Relative Humidity:  38%
  Winds from the W  (260 degs) at 15 mph.
  Altimeter:30.14 inches of mercury.
  The prevailing visibility was 10 miles.

The weather observed at HOT SPRINGS/INGA, VA (KHSP) at 04:15 PM EDT was:
  The skies were unobserved.
  Temperature: 90F ( 32C)  Dewpoint:  57F ( 14C)  Relative Humidity:  34%
  Winds from the WSW(250 degs) at 15 mph.
  Altimeter:30.14 inches of mercury.
  The prevailing visibility was 10 miles.

The weather observed at HOT SPRINGS/INGA, VA (KHSP) at 04:35 PM EDT was:
  The skies were unobserved.
  Temperature: 88F ( 31C)  Dewpoint:  59F ( 15C)  Relative Humidity:  38%
  Winds from the WSW(250 degs) at 13 mph.
  Altimeter:30.12 inches of mercury.
  The prevailing visibility was 10 miles.

The weather observed at HOT SPRINGS/INGA, VA (KHSP) at 04:55 PM EDT was:
  The skies were unobserved.
  Temperature: 90F ( 32C)  Dewpoint:  57F ( 14C)  Relative Humidity:  34%
  Winds from the WSW(250 degs) at 14 mph.
  Altimeter:30.12 inches of mercury.
  The prevailing visibility was 10 miles.

The weather observed at HOT SPRINGS/INGA, VA (KHSP) at 05:15 PM EDT was:
  The skies were unobserved.
  Temperature: 88F ( 31C)  Dewpoint:  57F ( 14C)  Relative Humidity:  36%
  Winds from the W  (260 degs) at 10 mph.
  Altimeter:30.11 inches of mercury.
  The prevailing visibility was 10 miles.

The weather observed at HOT SPRINGS/INGA, VA (KHSP) at 05:35 PM EDT was:
  The skies were unobserved.
  Temperature: 88F ( 31C)  Dewpoint:  57F ( 14C)  Relative Humidity:  36%
  Winds from the W  (280 degs) at  9 mph.
  Altimeter:30.11 inches of mercury.
  The prevailing visibility was 10 miles.

The weather observed at HOT SPRINGS/INGA, VA (KHSP) at 05:55 PM EDT was:
  The skies were unobserved.
  Temperature: 88F ( 31C)  Dewpoint:  59F ( 15C)  Relative Humidity:  38%
  Winds from the W  (260 degs) at 14 mph.
  Altimeter:30.11 inches of mercury.
  The prevailing visibility was 10 miles.

The weather observed at HOT SPRINGS/INGA, VA (KHSP) at 06:15 PM EDT was:
  The skies were unobserved.
  Temperature: 88F ( 31C)  Dewpoint:  59F ( 15C)  Relative Humidity:  38%
  Winds from the W  (260 degs) at  9 mph.
  Altimeter:30.11 inches of mercury.
  The prevailing visibility was 10 miles.

The weather observed at HOT SPRINGS/INGA, VA (KHSP) at 06:35 PM EDT was:
  The skies were unobserved.
  Temperature: 88F ( 31C)  Dewpoint:  61F ( 16C)  Relative Humidity:  40%
  Winds from the W  (260 degs) at  9 mph.
  Altimeter:30.10 inches of mercury.
  The prevailing visibility was 10 miles.

The weather observed at HOT SPRINGS/INGA, VA (KHSP) at 06:55 PM EDT was:
  The skies were unobserved.
  Temperature: 86F ( 30C)  Dewpoint:  61F ( 16C)  Relative Humidity:  43%
  Winds from the W  (270 degs) at 10 mph.
  Altimeter:30.10 inches of mercury.
  The prevailing visibility was 10 miles.

The weather observed at HOT SPRINGS/INGA, VA (KHSP) at 07:15 PM EDT was:
  The skies were unobserved.
  Temperature: 86F ( 30C)  Dewpoint:  61F ( 16C)  Relative Humidity:  43%
  Winds from the W  (270 degs) at 13 mph.
  Altimeter:30.10 inches of mercury.
  The prevailing visibility was 10 miles.

The weather observed at HOT SPRINGS/INGA, VA (KHSP) at 07:35 PM EDT was:
  The skies were unobserved.
  Temperature: 84F ( 29C)  Dewpoint:  61F ( 16C)  Relative Humidity:  45%
  Winds from the W  (270 degs) at 12 mph.
  Altimeter:30.11 inches of mercury.
  The prevailing visibility was 10 miles.

The weather observed at HOT SPRINGS/INGA, VA (KHSP) at 07:55 PM EDT was:
  The skies were unobserved.
  Temperature: 83F ( 29C)  Dewpoint:  62F ( 17C)  Relative Humidity:  48%
  Winds from the W  (270 degs) at  9 mph.
  Altimeter:30.11 inches of mercury.
  The prevailing visibility was 10 miles.
  The maximum temperature in the past 6 hours was  90F.

The weather observed at HOT SPRINGS/INGA, VA (KHSP) at 08:15 PM EDT was:
  The skies were unobserved.
  Temperature: 82F ( 28C)  Dewpoint:  63F ( 17C)  Relative Humidity:  51%
  Winds from the W  (260 degs) at  9 mph.
  Altimeter:30.12 inches of mercury.
  The prevailing visibility was 10 miles.

The weather observed at HOT SPRINGS/INGA, VA (KHSP) at 08:35 PM EDT was:
  The skies were unobserved.
  Temperature: 82F ( 28C)  Dewpoint:  63F ( 17C)  Relative Humidity:  51%
  Winds from the WSW(250 degs) at  7 mph.
  Altimeter:30.12 inches of mercury.
  The prevailing visibility was 10 miles.

The weather observed at HOT SPRINGS/INGA, VA (KHSP) at 08:55 PM EDT was:
  The skies were unobserved.
  Temperature: 81F ( 27C)  Dewpoint:  63F ( 17C)  Relative Humidity:  54%
  Winds from the WSW(250 degs) at  7 mph.
  Altimeter:30.12 inches of mercury.
  The prevailing visibility was 10 miles.

The weather observed at HOT SPRINGS/INGA, VA (KHSP) at 09:15 PM EDT was:
  The skies were unobserved.
  Temperature: 81F ( 27C)  Dewpoint:  63F ( 17C)  Relative Humidity:  54%
  Winds from the WSW(250 degs) at  8 mph.
  Altimeter:30.12 inches of mercury.
  The prevailing visibility was 10 miles.

The weather observed at HOT SPRINGS/INGA, VA (KHSP) at 09:35 PM EDT was:
  The skies were unobserved.
  Temperature: 79F ( 26C)  Dewpoint:  63F ( 17C)  Relative Humidity:  58%
  Winds from the WSW(250 degs) at  8 mph.
  Altimeter:30.12 inches of mercury.
  The prevailing visibility was 10 miles.

The weather observed at HOT SPRINGS/INGA, VA (KHSP) at 09:55 PM EDT was:
  The skies were unobserved.
  Temperature: 81F ( 27C)  Dewpoint:  63F ( 17C)  Relative Humidity:  54%
  Winds from the WSW(250 degs) at  9 mph.
  Altimeter:30.12 inches of mercury.
  The prevailing visibility was 10 miles.

The weather observed at HOT SPRINGS/INGA, VA (KHSP) at 10:15 PM EDT was:
  The skies were unobserved.
  Temperature: 79F ( 26C)  Dewpoint:  63F ( 17C)  Relative Humidity:  58%
  Winds from the SW (240 degs) at  8 mph.
  Altimeter:30.12 inches of mercury.
  The prevailing visibility was 10 miles.

The weather observed at HOT SPRINGS/INGA, VA (KHSP) at 10:35 PM EDT was:
  The skies were unobserved.
  Temperature: 79F ( 26C)  Dewpoint:  63F ( 17C)  Relative Humidity:  58%
  Winds from the SW (240 degs) at  8 mph.
  Altimeter:30.12 inches of mercury.
  The prevailing visibility was 10 miles.

The weather observed at HOT SPRINGS/INGA, VA (KHSP) at 10:55 PM EDT was:
  The skies were unobserved.
  Temperature: 77F ( 25C)  Dewpoint:  63F ( 17C)  Relative Humidity:  61%
  Winds from the SW (240 degs) at  8 mph.
  Altimeter:30.11 inches of mercury.
  The prevailing visibility was 10 miles.

The weather observed at HOT SPRINGS/INGA, VA (KHSP) at 11:15 PM EDT was:
  The skies were unobserved.
  Temperature: 77F ( 25C)  Dewpoint:  63F ( 17C)  Relative Humidity:  61%
  Winds from the SW (240 degs) at  9 mph.
  Altimeter:30.11 inches of mercury.
  The prevailing visibility was 10 miles.

The weather observed at HOT SPRINGS/INGA, VA (KHSP) at 11:35 PM EDT was:
  The skies were unobserved.
  Temperature: 77F ( 25C)  Dewpoint:  63F ( 17C)  Relative Humidity:  61%
  Winds from the SW (240 degs) at  9 mph.
  Altimeter:30.11 inches of mercury.
  The prevailing visibility was 10 miles.

The weather observed at HOT SPRINGS/INGA, VA (KHSP) at 11:55 PM EDT was:
  The skies were unobserved.
  Temperature: 77F ( 25C)  Dewpoint:  63F ( 17C)  Relative Humidity:  61%
  Winds from the SW (240 degs) at  9 mph.
  Altimeter:30.10 inches of mercury.
  The prevailing visibility was 10 miles.

The weather observed at HOT SPRINGS/INGA, VA (KHSP) at 12:15 AM EDT was:
  The skies were unobserved.
  Temperature: 77F ( 25C)  Dewpoint:  63F ( 17C)  Relative Humidity:  61%
  Winds from the SW (240 degs) at  8 mph.
  Altimeter:30.10 inches of mercury.
  The prevailing visibility was 10 miles.

The weather observed at HOT SPRINGS/INGA, VA (KHSP) at 12:35 AM EDT was:
  The skies were unobserved.
  Temperature: 77F ( 25C)  Dewpoint:  63F ( 17C)  Relative Humidity:  61%
  Winds from the WSW(250 degs) at 10 mph.
  Altimeter:30.10 inches of mercury.
  The prevailing visibility was 10 miles.

The weather observed at HOT SPRINGS/INGA, VA (KHSP) at 12:55 AM EDT was:
  The skies were unobserved.
  Temperature: 78F ( 25C)  Dewpoint:  63F ( 17C)  Relative Humidity:  60%
  Winds from the W  (270 degs) at 12 mph.
  Altimeter:30.09 inches of mercury.
  The prevailing visibility was 10 miles.

The weather observed at HOT SPRINGS/INGA, VA (KHSP) at 01:15 AM EDT was:
  The skies were unobserved.
  Temperature: 77F ( 25C)  Dewpoint:  63F ( 17C)  Relative Humidity:  61%
  Winds from the W  (260 degs) at 12 mph.
  Altimeter:30.10 inches of mercury.
  The prevailing visibility was 10 miles.

The weather observed at HOT SPRINGS/INGA, VA (KHSP) at 01:35 AM EDT was:
  The skies were unobserved.
  Temperature: 77F ( 25C)  Dewpoint:  63F ( 17C)  Relative Humidity:  61%
  Winds from the W  (260 degs) at 10 mph.
  Altimeter:30.09 inches of mercury.
  The prevailing visibility was 10 miles.

The weather observed at HOT SPRINGS/INGA, VA (KHSP) at 01:55 AM EDT was:
  The skies were unobserved.
  Temperature: 76F ( 25C)  Dewpoint:  64F ( 18C)  Relative Humidity:  65%
  Winds from the W  (260 degs) at 12 mph.
  Altimeter:30.10 inches of mercury.
  The prevailing visibility was 10 miles.
  The maximum temperature in the past 6 hours was  83F.

The weather observed at HOT SPRINGS/INGA, VA (KHSP) at 02:15 AM EDT was:
  The skies were unobserved.
  Temperature: 75F ( 24C)  Dewpoint:  64F ( 18C)  Relative Humidity:  69%
  Winds from the WSW(250 degs) at 12 mph.
  Altimeter:30.10 inches of mercury.
  The prevailing visibility was 10 miles.

The weather observed at HOT SPRINGS/INGA, VA (KHSP) at 02:35 AM EDT was:
  The skies were unobserved.
  Temperature: 75F ( 24C)  Dewpoint:  64F ( 18C)  Relative Humidity:  69%
  Winds from the WSW(250 degs) at 13 mph.
  Altimeter:30.10 inches of mercury.
  The prevailing visibility was 10 miles.

The weather observed at HOT SPRINGS/INGA, VA (KHSP) at 02:55 AM EDT was:
  The skies were unobserved.
  Temperature: 75F ( 24C)  Dewpoint:  64F ( 18C)  Relative Humidity:  69%
  Winds from the W  (260 degs) at 14 mph.
  Altimeter:30.10 inches of mercury.
  The prevailing visibility was 10 miles.

The weather observed at HOT SPRINGS/INGA, VA (KHSP) at 03:15 AM EDT was:
  The skies were unobserved.
  Temperature: 75F ( 24C)  Dewpoint:  64F ( 18C)  Relative Humidity:  69%
  Winds from the W  (260 degs) at 14 mph.
  Altimeter:30.10 inches of mercury.
  The prevailing visibility was 10 miles.

The weather observed at HOT SPRINGS/INGA, VA (KHSP) at 03:35 AM EDT was:
  The skies were unobserved.
  Temperature: 75F ( 24C)  Dewpoint:  64F ( 18C)  Relative Humidity:  69%
  Winds from the W  (270 degs) at 15 mph.
  Altimeter:30.10 inches of mercury.
  The prevailing visibility was 10 miles.

The weather observed at HOT SPRINGS/INGA, VA (KHSP) at 03:55 AM EDT was:
  The skies were unobserved.
  Temperature: 75F ( 24C)  Dewpoint:  64F ( 18C)  Relative Humidity:  69%
  Winds from the W  (270 degs) at 13 mph.
  Altimeter:30.10 inches of mercury.
  The prevailing visibility was 10 miles.

The weather observed at HOT SPRINGS/INGA, VA (KHSP) at 04:15 AM EDT was:
  The skies were unobserved.
  Temperature: 75F ( 24C)  Dewpoint:  64F ( 18C)  Relative Humidity:  69%
  Winds from the W  (270 degs) at 13 mph.
  Altimeter:30.09 inches of mercury.
  The prevailing visibility was 10 miles.

The weather observed at HOT SPRINGS/INGA, VA (KHSP) at 04:35 AM EDT was:
  The skies were unobserved.
  Temperature: 75F ( 24C)  Dewpoint:  64F ( 18C)  Relative Humidity:  69%
  Winds from the W  (260 degs) at 14 mph.
  Altimeter:30.09 inches of mercury.
  The prevailing visibility was 10 miles.

The weather observed at HOT SPRINGS/INGA, VA (KHSP) at 04:55 AM EDT was:
  The skies were unobserved.
  Temperature: 75F ( 24C)  Dewpoint:  66F ( 19C)  Relative Humidity:  74%
  Winds from the W  (270 degs) at 13 mph.
  Altimeter:30.09 inches of mercury.
  The prevailing visibility was 10 miles.

The weather observed at HOT SPRINGS/INGA, VA (KHSP) at 05:15 AM EDT was:
  The skies were unobserved.
  Temperature: 75F ( 24C)  Dewpoint:  64F ( 18C)  Relative Humidity:  69%
  Winds from the W  (260 degs) at 12 mph.
  Altimeter:30.08 inches of mercury.
  The prevailing visibility was 10 miles.

The weather observed at HOT SPRINGS/INGA, VA (KHSP) at 05:35 AM EDT was:
  The skies were unobserved.
  Temperature: 73F ( 23C)  Dewpoint:  66F ( 19C)  Relative Humidity:  78%
  Winds from the W  (270 degs) at 13 mph.
  Altimeter:30.08 inches of mercury.
  The prevailing visibility was 10 miles.

The weather observed at HOT SPRINGS/INGA, VA (KHSP) at 05:55 AM EDT was:
  The skies were unobserved.
  Temperature: 73F ( 23C)  Dewpoint:  66F ( 19C)  Relative Humidity:  78%
  Winds from the W  (270 degs) at 12 mph.
  Altimeter:30.09 inches of mercury.
  The prevailing visibility was 10 miles.

The weather observed at HOT SPRINGS/INGA, VA (KHSP) at 06:15 AM EDT was:
  The skies were unobserved.
  Temperature: 73F ( 23C)  Dewpoint:  66F ( 19C)  Relative Humidity:  78%
  Winds from the W  (270 degs) at 13 mph.
  Altimeter:30.09 inches of mercury.
  The prevailing visibility was 10 miles.

The weather observed at HOT SPRINGS/INGA, VA (KHSP) at 06:35 AM EDT was:
  The skies were unobserved.
  Temperature: 73F ( 23C)  Dewpoint:  66F ( 19C)  Relative Humidity:  78%
  Winds from the W  (270 degs) at 13 mph.
  Altimeter:30.10 inches of mercury.
  The prevailing visibility was 10 miles.

The weather observed at HOT SPRINGS/INGA, VA (KHSP) at 06:55 AM EDT was:
  The skies were unobserved.
  Temperature: 75F ( 24C)  Dewpoint:  66F ( 19C)  Relative Humidity:  74%
  Winds from the W  (270 degs) at 12 mph.
  Altimeter:30.10 inches of mercury.
  The prevailing visibility was 10 miles.

The weather observed at HOT SPRINGS/INGA, VA (KHSP) at 07:15 AM EDT was:
  The skies were unobserved.
  Temperature: 75F ( 24C)  Dewpoint:  66F ( 19C)  Relative Humidity:  74%
  Winds from the W  (260 degs) at 10 mph.
  Altimeter:30.11 inches of mercury.
  The prevailing visibility was 10 miles.

The weather observed at HOT SPRINGS/INGA, VA (KHSP) at 07:35 AM EDT was:
  The skies were unobserved.
  Temperature: 75F ( 24C)  Dewpoint:  68F ( 20C)  Relative Humidity:  78%
  Winds from the W  (270 degs) at 10 mph.
  Altimeter:30.12 inches of mercury.
  The prevailing visibility was 10 miles.

The weather observed at HOT SPRINGS/INGA, VA (KHSP) at 07:55 AM EDT was:
  The skies were unobserved.
  Temperature: 76F ( 24C)  Dewpoint:  67F ( 20C)  Relative Humidity:  76%
  Winds from the W  (270 degs) at 10 mph.
  Altimeter:30.12 inches of mercury.
  The prevailing visibility was 10 miles.
  The maximum temperature in the past 6 hours was  76F.

The weather observed at HOT SPRINGS/INGA, VA (KHSP) at 08:15 AM EDT was:
  The skies were unobserved.
  Temperature: 75F ( 24C)  Dewpoint:  68F ( 20C)  Relative Humidity:  78%
  Winds from the W  (260 degs) at 13 mph.
  Altimeter:30.12 inches of mercury.
  The prevailing visibility was 10 miles.

The weather observed at HOT SPRINGS/INGA, VA (KHSP) at 08:35 AM EDT was:
  The skies were unobserved.
  Temperature: 77F ( 25C)  Dewpoint:  68F ( 20C)  Relative Humidity:  74%
  Winds from the W  (270 degs) at 12 mph.
  Altimeter:30.12 inches of mercury.
  The prevailing visibility was 10 miles.

The weather observed at HOT SPRINGS/INGA, VA (KHSP) at 08:55 AM EDT was:
  The skies were unobserved.
  Temperature: 77F ( 25C)  Dewpoint:  68F ( 20C)  Relative Humidity:  74%
  Winds from the W  (270 degs) at 15 mph.
  Altimeter:30.12 inches of mercury.
  The prevailing visibility was 10 miles.

The weather observed at HOT SPRINGS/INGA, VA (KHSP) at 09:15 AM EDT was:
  The skies were unobserved.
  Temperature: 77F ( 25C)  Dewpoint:  68F ( 20C)  Relative Humidity:  74%
  Winds from the W  (270 degs) at 12 mph.
  Altimeter:30.12 inches of mercury.
  The prevailing visibility was 10 miles.

The weather observed at HOT SPRINGS/INGA, VA (KHSP) at 09:35 AM EDT was:
  The skies were unobserved.
  Temperature: 79F ( 26C)  Dewpoint:  68F ( 20C)  Relative Humidity:  70%
  Winds from the W  (270 degs) at 13 mph.
  Altimeter:30.12 inches of mercury.
  The prevailing visibility was 10 miles.

The weather observed at HOT SPRINGS/INGA, VA (KHSP) at 09:55 AM EDT was:
  The skies were unobserved.
  Temperature: 79F ( 26C)  Dewpoint:  68F ( 20C)  Relative Humidity:  70%
  Winds from the W  (260 degs) at 13 mph.
  Altimeter:30.12 inches of mercury.
  The prevailing visibility was 10 miles.

The weather observed at HOT SPRINGS/INGA, VA (KHSP) at 10:15 AM EDT was:
  The skies were unobserved.
  Temperature: 79F ( 26C)  Dewpoint:  70F ( 21C)  Relative Humidity:  74%
  Winds from the WSW(250 degs) at 12 mph.
  Altimeter:30.12 inches of mercury.
  The prevailing visibility was 10 miles.

The weather observed at HOT SPRINGS/INGA, VA (KHSP) at 10:35 AM EDT was:
  The skies were unobserved.
  Temperature: 81F ( 27C)  Dewpoint:  70F ( 21C)  Relative Humidity:  70%
  Winds from the W  (280 degs) at 10 mph.
  Altimeter:30.13 inches of mercury.
  The prevailing visibility was 10 miles.

The weather observed at HOT SPRINGS/INGA, VA (KHSP) at 10:55 AM EDT was:
  The skies were unobserved.
  Temperature: 81F ( 27C)  Dewpoint:  70F ( 21C)  Relative Humidity:  70%
  Winds from the NW (300 degs) at 15 mph.
  Altimeter:30.13 inches of mercury.
  The prevailing visibility was 10 miles.

The weather observed at HOT SPRINGS/INGA, VA (KHSP) at 11:15 AM EDT was:
  The skies were unobserved.
  Temperature: 82F ( 28C)  Dewpoint:  70F ( 21C)  Relative Humidity:  66%
  Winds from the SW (240 degs) at 15 mph.
  Altimeter:30.13 inches of mercury.
  The prevailing visibility was 10 miles.

The weather observed at HOT SPRINGS/INGA, VA (KHSP) at 11:35 AM EDT was:
  The skies were unobserved.
  Temperature: 82F ( 28C)  Dewpoint:  68F ( 20C)  Relative Humidity:  62%
  Winds from the W  (260 degs) at 13 mph.
  Altimeter:30.13 inches of mercury.
  The prevailing visibility was 10 miles.

The weather observed at HOT SPRINGS/INGA, VA (KHSP) at 11:55 AM EDT was:
  The skies were unobserved.
  Temperature: 86F ( 30C)  Dewpoint:  68F ( 20C)  Relative Humidity:  55%
  Winds from the W  (260 degs) at 15 mph.
  Altimeter:30.12 inches of mercury.
  The prevailing visibility was 10 miles.

The weather observed at HOT SPRINGS/INGA, VA (KHSP) at 12:15 PM EDT was:
  The skies were unobserved.
  Temperature: 86F ( 30C)  Dewpoint:  66F ( 19C)  Relative Humidity:  52%
  Winds from the W  (260 degs) at 15 mph.
  Altimeter:30.12 inches of mercury.
  The prevailing visibility was 10 miles.

The weather observed at HOT SPRINGS/INGA, VA (KHSP) at 12:35 PM EDT was:
  The skies were unobserved.
  Temperature: 84F ( 29C)  Dewpoint:  68F ( 20C)  Relative Humidity:  58%
  Winds from the W  (260 degs) at 14 mph.
  Altimeter:30.12 inches of mercury.
  The prevailing visibility was 10 miles.

The weather observed at HOT SPRINGS/INGA, VA (KHSP) at 12:55 PM EDT was:
  The skies were unobserved.
  Temperature: 86F ( 30C)  Dewpoint:  66F ( 19C)  Relative Humidity:  52%
  Winds from the W  (260 degs) at 15 mph.
  Altimeter:30.12 inches of mercury.
  The prevailing visibility was 10 miles.

The weather observed at HOT SPRINGS/INGA, VA (KHSP) at 01:15 PM EDT was:
  The skies were unobserved.
  Temperature: 86F ( 30C)  Dewpoint:  68F ( 20C)  Relative Humidity:  55%
  Winds from the W  (270 degs) at 10 mph.
  Altimeter:30.11 inches of mercury.
  The prevailing visibility was 10 miles.

The weather observed at HOT SPRINGS/INGA, VA (KHSP) at 01:35 PM EDT was:
  The skies were unobserved.
  Temperature: 88F ( 31C)  Dewpoint:  66F ( 19C)  Relative Humidity:  49%
  Winds from the SW (240 degs) at 14 mph.
  Altimeter:30.11 inches of mercury.
  The prevailing visibility was 10 miles.

The weather observed at HOT SPRINGS/INGA, VA (KHSP) at 01:55 PM EDT was:
  The skies were unobserved.
  Temperature: 88F ( 31C)  Dewpoint:  66F ( 19C)  Relative Humidity:  49%
  Winds from the WSW(250 degs) at 10 mph.
  Altimeter:30.10 inches of mercury.
  The prevailing visibility was 10 miles.
  The maximum temperature in the past 6 hours was  88F.

The weather observed at HOT SPRINGS/INGA, VA (KHSP) at 02:15 PM EDT was:
  The skies were unobserved.
  Temperature: 88F ( 31C)  Dewpoint:  66F ( 19C)  Relative Humidity:  49%
  Winds from the SW (240 degs) at 14 mph.
  Altimeter:30.09 inches of mercury.
  The prevailing visibility was 10 miles.

The weather observed at HOT SPRINGS/INGA, VA (KHSP) at 02:35 PM EDT was:
  The skies were unobserved.
  Temperature: 86F ( 30C)  Dewpoint:  66F ( 19C)  Relative Humidity:  52%
  Winds from the W  (280 degs) at  9 mph.
  Altimeter:30.09 inches of mercury.
  The prevailing visibility was 10 miles.

The weather observed at HOT SPRINGS/INGA, VA (KHSP) at 02:55 PM EDT was:
  The skies were unobserved.
  Temperature: 88F ( 31C)  Dewpoint:  64F ( 18C)  Relative Humidity:  46%
  Winds from the W  (270 degs) at 12 mph.
  Altimeter:30.09 inches of mercury.
  The prevailing visibility was 10 miles.

The weather observed at HOT SPRINGS/INGA, VA (KHSP) at 03:15 PM EDT was:
  The skies were unobserved.
  Temperature: 88F ( 31C)  Dewpoint:  64F ( 18C)  Relative Humidity:  46%
  Winds from the W  (260 degs) at 12 mph.
  Altimeter:30.08 inches of mercury.
  The prevailing visibility was 10 miles.

The weather observed at HOT SPRINGS/INGA, VA (KHSP) at 03:35 PM EDT was:
  The skies were unobserved.
  Temperature: 90F ( 32C)  Dewpoint:  64F ( 18C)  Relative Humidity:  43%
  Winds from the SW (240 degs) at 12 mph.
  Altimeter:30.07 inches of mercury.
  The prevailing visibility was 10 miles.

The weather observed at HOT SPRINGS/INGA, VA (KHSP) at 03:55 PM EDT was:
  The skies were unobserved.
  Temperature: 88F ( 31C)  Dewpoint:  63F ( 17C)  Relative Humidity:  43%
  Winds from the W  (260 degs) at  9 mph.
  Altimeter:30.06 inches of mercury.
  The prevailing visibility was 10 miles.

The weather observed at HOT SPRINGS/INGA, VA (KHSP) at 04:15 PM EDT was:
  The skies were unobserved.
  Temperature: 88F ( 31C)  Dewpoint:  64F ( 18C)  Relative Humidity:  46%
  Winds from the SW (240 degs) at 12 mph.
  Altimeter:30.07 inches of mercury.
  The prevailing visibility was 10 miles.

Short Range Forecast

Sorry no data found for hsp
Make sure hsp is a valid station
You might need to specify a nearby major city
Try Again

Zone Forecast

VAZ020-170300-
Bath-
Including the city of Hot Springs
302 PM EDT Tue Jul 16 2024

.THIS AFTERNOON...Mostly sunny with a slight chance of showers
and thunderstorms. Hot. Near steady temperature in the mid 90s.
Southwest winds around 10 mph. Chance of rain 20 percent.
.TONIGHT...Partly cloudy. A chance of showers with a slight
chance of thunderstorms in the evening. Humid with lows in the
upper 60s. West winds 5 to 10 mph. Chance of rain 40 percent.
.WEDNESDAY...Sunny in the morning, then partly sunny with showers
likely with a chance of thunderstorms in the afternoon. Humid
with highs in the upper 80s. West winds 5 to 10 mph. Chance of
rain 70 percent.
.WEDNESDAY NIGHT...Mostly cloudy. Showers and thunderstorms
likely, mainly in the evening. Humid with lows in the upper 60s.
West winds 5 to 10 mph. Chance of rain 70 percent.
.THURSDAY...Partly sunny with a chance of showers and
thunderstorms. Humid with highs in the lower 80s. Northwest winds
around 5 mph. Chance of rain 50 percent.
.THURSDAY NIGHT...Partly cloudy. A chance of showers in the
evening. Lows in the lower 60s. Chance of rain 50 percent.
.FRIDAY AND FRIDAY NIGHT...Mostly cloudy. Highs in the lower 80s.
Lows in the lower 60s.
.SATURDAY AND SATURDAY NIGHT...Mostly cloudy. Showers likely with
a chance of thunderstorms. Highs in the lower 80s. Lows in the
mid 60s. Chance of rain 60 percent.
.SUNDAY AND SUNDAY NIGHT...Mostly cloudy. A chance of showers and
thunderstorms. Highs in the mid 80s. Lows in the mid 60s. Chance
of rain 40 percent.
.MONDAY...Partly sunny. A chance of showers in the morning, then
showers likely with a chance of thunderstorms in the afternoon.
Highs in the mid 80s. Chance of rain 60 percent.


State Forecast

Sorry no data found for hsp
Make sure hsp is a valid station
You might need to specify a nearby major city
Try Again

State Forecast Discussion

Sorry no data found for hsp
Make sure hsp is a valid station
You might need to specify a nearby major city
Try Again

GFS Short-Range Model Output Statistics (MOS) Forecast

KHSP   GFS MOS GUIDANCE    7/16/2024  1200 UTC
DT /JULY 16/JULY 17                /JULY 18                /JULY 19
HR   18 21 00 03 06 09 12 15 18 21 00 03 06 09 12 15 18 21 00 06 12
N/X                    69          79          63          75    60
TMP  85 86 79 74 72 70 72 75 77 75 71 67 66 64 65 69 73 73 68 63 62
DPT  67 66 65 66 66 65 66 67 66 67 67 67 66 64 64 65 62 60 59 58 57
CLD  SC SC OV OV BK BK BK BK OV OV OV OV OV OV OV OV BK BK BK OV SC
WDR  26 25 25 26 26 26 26 27 25 26 27 28 28 28 29 30 28 29 31 36 04
WSP  11 10 10 10 08 09 11 11 11 13 11 07 06 05 06 06 06 06 05 05 04
P06        14    16    12    11    57    40    35    23    13  8  5
P12                    26          72          50          37    13
Q06         0     0     0     0     3     1     0     0     0  0  0
Q12                     0           3           1           0     0
T06     23/16 11/ 4  2/ 0  9/ 4 52/23 17/ 4  4/ 1 10/ 2 20/10  1/ 0
T12           35/19       10/ 4       59/24       12/ 3    22/14
CIG   8  8  8  1  1  1  1  8  7  6  4  1  1  1  1  6  7  7  8  1  1
VIS   7  7  7  7  2  3  7  7  7  6  5  1  1  1  4  7  7  7  7  1  7
OBV   N  N  N  N  N BR  N  N  N  N  N FG FG FG BR  N  N  N  N  N  N

GFS Long-Range Model Output Statistics (MOS) Forecast

KHSP   GFSX MOS GUIDANCE   7/16/2024  1200 UTC
FHR  24  36| 48  60| 72  84| 96 108|120 132|144 156|168 180|192
     WED 17| THU 18| FRI 19| SAT 20| SUN 21| MON 22| TUE 23|WED CLIMO
N/X  69  79| 63  75| 60  74| 63  75| 65  79| 64  78| 63  76| 63 60 84
TMP  72  71| 65  68| 62  68| 66  70| 68  73| 67  71| 66  70| 66
DPT  66  67| 64  59| 57  61| 61  64| 64  64| 63  63| 62  64| 62
CLD  OV  OV| OV  OV| PC  PC| OV  OV| OV  OV| OV  OV| OV  OV| OV
WND  11  13| 11   6|  7   4|  5   5|  6   6|  6   7|  7   7| 11
P12  26  72| 50  37| 13   5| 17  46| 36  38| 33  47| 37  47| 38999999
P24      72|     60|     13|     49|     46|     59|     77|      999
Q12   0   3|  1   0|  0   0|  0   1|  0   0|  0   2|       |
Q24       2|      1|      0|      1|      0|      2|       |
T12  11  52| 19  21|  8  18|  6  35| 17  35| 17  37| 15  36| 13
T24        | 52    | 21    | 18    | 39    | 37    | 37    | 36

NGM Model Output Statistics (MOS) Forecast

Climatological Summary

Sorry no data found for hsp
Make sure hsp is a valid station
You might need to specify a nearby major city
Try Again

Watch and Warning Statment

Sorry no data found for hsp
Make sure hsp is a valid station
You might need to specify a nearby major city
or it could be THERE ARE NO WATCHES OR WARNINGS for hsp
Try Again

Park/Ski Recreation Report/Forecast

Sorry no data found for hsp
Make sure hsp is a valid station
You might need to specify a nearby major city
Try Again